<?xml version="1.0" encoding="UTF-8" standalone="no" ?>
<gpx xmlns="http://www.topografix.com/GPX/1/1" xmlns:xsi="http://www.w3.org/2001/XMLSchema-instance" xsi:schemaLocation="http://www.topografix.com/GPX/1/1 http://www.topografix.com/GPX/1/1/gpx.xsd" version="1.1" creator="VisuGPX - https://www.visugpx.com">
  <metadata>
    <name>cascade-de-cubservies </name>
    <desc><![CDATA[cascade-de-cubservies version avant de Gerard M]]></desc>
  </metadata>
  <wpt lat="43.37103" lon="2.37708">
    <ele>325.6</ele>
    <name><![CDATA[Parking des Randonneurs]]></name>
  </wpt>
  <wpt lat="43.3801" lon="2.37882">
    <ele>592.9</ele>
    <name><![CDATA[Intersection. Aller à gauche.]]></name>
  </wpt>
  <wpt lat="43.3834" lon="2.36887">
    <ele>697</ele>
    <name><![CDATA[Arrivée à la crête.]]></name>
  </wpt>
  <wpt lat="43.38739" lon="2.37614">
    <ele>776.6</ele>
    <name><![CDATA[Intersection avec une large piste.]]></name>
  </wpt>
  <wpt lat="43.39378" lon="2.36941">
    <ele>796.4</ele>
    <name><![CDATA[Vierge du Plo St-Martin.]]></name>
  </wpt>
  <wpt lat="43.39694" lon="2.3709">
    <ele>737.7</ele>
    <name><![CDATA[Cubserviès]]></name>
  </wpt>
  <wpt lat="43.40136" lon="2.37816">
    <ele>776.8</ele>
    <name><![CDATA[Quitter la piste]]></name>
  </wpt>
  <wpt lat="43.3995" lon="2.37474">
    <ele>710.2</ele>
    <name><![CDATA[Intersection. Possibilité chemin pour la cascade.]]></name>
  </wpt>
  <wpt lat="43.38708" lon="2.39631">
    <ele>449.3</ele>
    <name><![CDATA[Pont sur le ruisseau de Prat Viel.]]></name>
  </wpt>
  <wpt lat="43.38436" lon="2.3961">
    <ele>430.8</ele>
    <name><![CDATA[Intersection route avant  Bastide Espabairenque.]]></name>
  </wpt>
  <wpt lat="43.37913" lon="2.39197">
    <ele>467.9</ele>
    <name><![CDATA[Lavoir]]></name>
  </wpt>
  <wpt lat="43.3763" lon="2.38967">
    <ele>516.6</ele>
    <name><![CDATA[Intersection piste]]></name>
  </wpt>
  <wpt lat="43.36557" lon="2.3787">
    <ele>377.6</ele>
    <name><![CDATA[À droite vers Roquefère]]></name>
  </wpt>
  <wpt lat="43.37103" lon="2.37715">
    <ele>324.6</ele>
    <name><![CDATA[Parking des Randonneurs]]></name>
  </wpt>
  <trk>
    <name><![CDATA[20190424091327-hubFm]]></name>
    <trkseg>
      <trkpt lat="43.37103" lon="2.37708">
        <ele>311</ele>
        <time>2019-04-24T09:10:40 02:00</time>
      </trkpt>
      <trkpt lat="43.37098" lon="2.37694">
        <ele>312</ele>
        <time>2019-04-24T09:10:45 02:00</time>
      </trkpt>
      <trkpt lat="43.37089" lon="2.37693">
        <ele>312</ele>
        <time>2019-04-24T09:10:50 02:00</time>
      </trkpt>
      <trkpt lat="43.37125" lon="2.37652">
        <ele>323</ele>
        <time>2019-04-24T09:10:55 02:00</time>
      </trkpt>
      <trkpt lat="43.37128" lon="2.37678">
        <ele>322</ele>
        <time>2019-04-24T09:11:00 02:00</time>
      </trkpt>
      <trkpt lat="43.3716" lon="2.37742">
        <ele>320</ele>
        <time>2019-04-24T09:11:05 02:00</time>
      </trkpt>
      <trkpt lat="43.37182" lon="2.37765">
        <ele>320</ele>
        <time>2019-04-24T09:11:10 02:00</time>
      </trkpt>
      <trkpt lat="43.37224" lon="2.37768">
        <ele>325</ele>
        <time>2019-04-24T09:11:15 02:00</time>
      </trkpt>
      <trkpt lat="43.37253" lon="2.37793">
        <ele>329</ele>
        <time>2019-04-24T09:11:20 02:00</time>
      </trkpt>
      <trkpt lat="43.37257" lon="2.37772">
        <ele>336</ele>
        <time>2019-04-24T09:11:25 02:00</time>
      </trkpt>
      <trkpt lat="43.37251" lon="2.37763">
        <ele>340</ele>
        <time>2019-04-24T09:11:30 02:00</time>
      </trkpt>
      <trkpt lat="43.37244" lon="2.3775">
        <ele>343</ele>
        <time>2019-04-24T09:11:35 02:00</time>
      </trkpt>
      <trkpt lat="43.37244" lon="2.37737">
        <ele>349</ele>
        <time>2019-04-24T09:11:40 02:00</time>
      </trkpt>
      <trkpt lat="43.37207" lon="2.37688">
        <ele>359</ele>
        <time>2019-04-24T09:11:45 02:00</time>
      </trkpt>
      <trkpt lat="43.37208" lon="2.37681">
        <ele>362</ele>
        <time>2019-04-24T09:11:50 02:00</time>
      </trkpt>
      <trkpt lat="43.37211" lon="2.37678">
        <ele>364</ele>
        <time>2019-04-24T09:11:55 02:00</time>
      </trkpt>
      <trkpt lat="43.37208" lon="2.37665">
        <ele>366</ele>
        <time>2019-04-24T09:12:00 02:00</time>
      </trkpt>
      <trkpt lat="43.37219" lon="2.37628">
        <ele>378</ele>
        <time>2019-04-24T09:12:05 02:00</time>
      </trkpt>
      <trkpt lat="43.37236" lon="2.37591">
        <ele>388</ele>
        <time>2019-04-24T09:12:10 02:00</time>
      </trkpt>
      <trkpt lat="43.37244" lon="2.37563">
        <ele>394</ele>
        <time>2019-04-24T09:12:15 02:00</time>
      </trkpt>
      <trkpt lat="43.37244" lon="2.37527">
        <ele>395</ele>
        <time>2019-04-24T09:12:20 02:00</time>
      </trkpt>
      <trkpt lat="43.37258" lon="2.37514">
        <ele>398</ele>
        <time>2019-04-24T09:12:25 02:00</time>
      </trkpt>
      <trkpt lat="43.37316" lon="2.37477">
        <ele>398</ele>
        <time>2019-04-24T09:12:30 02:00</time>
      </trkpt>
      <trkpt lat="43.37356" lon="2.37444">
        <ele>402</ele>
        <time>2019-04-24T09:12:35 02:00</time>
      </trkpt>
      <trkpt lat="43.37401" lon="2.37392">
        <ele>411</ele>
        <time>2019-04-24T09:12:40 02:00</time>
      </trkpt>
      <trkpt lat="43.37406" lon="2.3738">
        <ele>411</ele>
        <time>2019-04-24T09:12:45 02:00</time>
      </trkpt>
      <trkpt lat="43.37417" lon="2.37371">
        <ele>416</ele>
        <time>2019-04-24T09:12:50 02:00</time>
      </trkpt>
      <trkpt lat="43.37434" lon="2.37352">
        <ele>419</ele>
        <time>2019-04-24T09:12:55 02:00</time>
      </trkpt>
      <trkpt lat="43.37455" lon="2.37318">
        <ele>419</ele>
        <time>2019-04-24T09:13:00 02:00</time>
      </trkpt>
      <trkpt lat="43.37505" lon="2.37242">
        <ele>432</ele>
        <time>2019-04-24T09:13:05 02:00</time>
      </trkpt>
      <trkpt lat="43.37515" lon="2.37229">
        <ele>436</ele>
        <time>2019-04-24T09:13:10 02:00</time>
      </trkpt>
      <trkpt lat="43.37534" lon="2.37184">
        <ele>439</ele>
        <time>2019-04-24T09:13:15 02:00</time>
      </trkpt>
      <trkpt lat="43.37542" lon="2.37165">
        <ele>441</ele>
        <time>2019-04-24T09:13:20 02:00</time>
      </trkpt>
      <trkpt lat="43.37575" lon="2.37139">
        <ele>452</ele>
        <time>2019-04-24T09:13:25 02:00</time>
      </trkpt>
      <trkpt lat="43.37597" lon="2.37109">
        <ele>458</ele>
        <time>2019-04-24T09:13:30 02:00</time>
      </trkpt>
      <trkpt lat="43.37627" lon="2.37074">
        <ele>467</ele>
        <time>2019-04-24T09:13:35 02:00</time>
      </trkpt>
      <trkpt lat="43.37643" lon="2.37064">
        <ele>471</ele>
        <time>2019-04-24T09:13:40 02:00</time>
      </trkpt>
      <trkpt lat="43.37667" lon="2.37055">
        <ele>475</ele>
        <time>2019-04-24T09:13:45 02:00</time>
      </trkpt>
      <trkpt lat="43.37684" lon="2.37041">
        <ele>473</ele>
        <time>2019-04-24T09:13:50 02:00</time>
      </trkpt>
      <trkpt lat="43.37697" lon="2.37039">
        <ele>476</ele>
        <time>2019-04-24T09:13:55 02:00</time>
      </trkpt>
      <trkpt lat="43.37708" lon="2.37044">
        <ele>482</ele>
        <time>2019-04-24T09:14:00 02:00</time>
      </trkpt>
      <trkpt lat="43.37719" lon="2.37044">
        <ele>485</ele>
        <time>2019-04-24T09:14:05 02:00</time>
      </trkpt>
      <trkpt lat="43.37752" lon="2.37057">
        <ele>492</ele>
        <time>2019-04-24T09:14:10 02:00</time>
      </trkpt>
      <trkpt lat="43.37783" lon="2.37058">
        <ele>495</ele>
        <time>2019-04-24T09:14:15 02:00</time>
      </trkpt>
      <trkpt lat="43.37799" lon="2.37065">
        <ele>499</ele>
        <time>2019-04-24T09:14:20 02:00</time>
      </trkpt>
      <trkpt lat="43.37787" lon="2.3708">
        <ele>504</ele>
        <time>2019-04-24T09:14:25 02:00</time>
      </trkpt>
      <trkpt lat="43.37791" lon="2.37084">
        <ele>506</ele>
        <time>2019-04-24T09:14:30 02:00</time>
      </trkpt>
      <trkpt lat="43.3778" lon="2.37094">
        <ele>510</ele>
        <time>2019-04-24T09:14:35 02:00</time>
      </trkpt>
      <trkpt lat="43.37786" lon="2.371">
        <ele>513</ele>
        <time>2019-04-24T09:14:40 02:00</time>
      </trkpt>
      <trkpt lat="43.3783" lon="2.37101">
        <ele>520</ele>
        <time>2019-04-24T09:14:45 02:00</time>
      </trkpt>
      <trkpt lat="43.37839" lon="2.371">
        <ele>522</ele>
        <time>2019-04-24T09:14:50 02:00</time>
      </trkpt>
      <trkpt lat="43.37831" lon="2.37116">
        <ele>527</ele>
        <time>2019-04-24T09:14:55 02:00</time>
      </trkpt>
      <trkpt lat="43.37817" lon="2.37126">
        <ele>529</ele>
        <time>2019-04-24T09:15:00 02:00</time>
      </trkpt>
      <trkpt lat="43.3783" lon="2.37127">
        <ele>531</ele>
        <time>2019-04-24T09:15:05 02:00</time>
      </trkpt>
      <trkpt lat="43.37828" lon="2.37134">
        <ele>534</ele>
        <time>2019-04-24T09:15:10 02:00</time>
      </trkpt>
      <trkpt lat="43.37803" lon="2.37153">
        <ele>540</ele>
        <time>2019-04-24T09:15:15 02:00</time>
      </trkpt>
      <trkpt lat="43.37802" lon="2.3716">
        <ele>544</ele>
        <time>2019-04-24T09:15:20 02:00</time>
      </trkpt>
      <trkpt lat="43.37826" lon="2.37153">
        <ele>542</ele>
        <time>2019-04-24T09:15:25 02:00</time>
      </trkpt>
      <trkpt lat="43.3789" lon="2.37149">
        <ele>554</ele>
        <time>2019-04-24T09:15:30 02:00</time>
      </trkpt>
      <trkpt lat="43.37903" lon="2.37151">
        <ele>557</ele>
        <time>2019-04-24T09:15:35 02:00</time>
      </trkpt>
      <trkpt lat="43.37926" lon="2.37155">
        <ele>562</ele>
        <time>2019-04-24T09:15:40 02:00</time>
      </trkpt>
      <trkpt lat="43.37901" lon="2.37175">
        <ele>566</ele>
        <time>2019-04-24T09:15:45 02:00</time>
      </trkpt>
      <trkpt lat="43.37833" lon="2.37212">
        <ele>568</ele>
        <time>2019-04-24T09:15:50 02:00</time>
      </trkpt>
      <trkpt lat="43.37811" lon="2.37223">
        <ele>571</ele>
        <time>2019-04-24T09:15:55 02:00</time>
      </trkpt>
      <trkpt lat="43.37792" lon="2.37228">
        <ele>571</ele>
        <time>2019-04-24T09:16:00 02:00</time>
      </trkpt>
      <trkpt lat="43.37782" lon="2.37235">
        <ele>572</ele>
        <time>2019-04-24T09:16:05 02:00</time>
      </trkpt>
      <trkpt lat="43.37773" lon="2.37245">
        <ele>573</ele>
        <time>2019-04-24T09:16:10 02:00</time>
      </trkpt>
      <trkpt lat="43.37769" lon="2.37258">
        <ele>575</ele>
        <time>2019-04-24T09:16:15 02:00</time>
      </trkpt>
      <trkpt lat="43.37767" lon="2.37305">
        <ele>578</ele>
        <time>2019-04-24T09:16:20 02:00</time>
      </trkpt>
      <trkpt lat="43.37765" lon="2.37333">
        <ele>577</ele>
        <time>2019-04-24T09:16:25 02:00</time>
      </trkpt>
      <trkpt lat="43.37772" lon="2.37345">
        <ele>577</ele>
        <time>2019-04-24T09:16:30 02:00</time>
      </trkpt>
      <trkpt lat="43.3778" lon="2.37352">
        <ele>578</ele>
        <time>2019-04-24T09:16:35 02:00</time>
      </trkpt>
      <trkpt lat="43.37801" lon="2.3736">
        <ele>580</ele>
        <time>2019-04-24T09:16:40 02:00</time>
      </trkpt>
      <trkpt lat="43.3782" lon="2.37368">
        <ele>581</ele>
        <time>2019-04-24T09:16:45 02:00</time>
      </trkpt>
      <trkpt lat="43.37838" lon="2.37387">
        <ele>580</ele>
        <time>2019-04-24T09:16:50 02:00</time>
      </trkpt>
      <trkpt lat="43.37849" lon="2.37402">
        <ele>576</ele>
        <time>2019-04-24T09:16:55 02:00</time>
      </trkpt>
      <trkpt lat="43.37872" lon="2.37419">
        <ele>576</ele>
        <time>2019-04-24T09:17:00 02:00</time>
      </trkpt>
      <trkpt lat="43.37889" lon="2.37433">
        <ele>575</ele>
        <time>2019-04-24T09:17:05 02:00</time>
      </trkpt>
      <trkpt lat="43.3791" lon="2.37444">
        <ele>577</ele>
        <time>2019-04-24T09:17:10 02:00</time>
      </trkpt>
      <trkpt lat="43.37929" lon="2.37461">
        <ele>575</ele>
        <time>2019-04-24T09:17:15 02:00</time>
      </trkpt>
      <trkpt lat="43.37947" lon="2.37479">
        <ele>574</ele>
        <time>2019-04-24T09:17:20 02:00</time>
      </trkpt>
      <trkpt lat="43.37959" lon="2.37488">
        <ele>574</ele>
        <time>2019-04-24T09:17:25 02:00</time>
      </trkpt>
      <trkpt lat="43.37977" lon="2.37496">
        <ele>577</ele>
        <time>2019-04-24T09:17:30 02:00</time>
      </trkpt>
      <trkpt lat="43.37998" lon="2.37511">
        <ele>582</ele>
        <time>2019-04-24T09:17:35 02:00</time>
      </trkpt>
      <trkpt lat="43.38019" lon="2.37532">
        <ele>584</ele>
        <time>2019-04-24T09:17:40 02:00</time>
      </trkpt>
      <trkpt lat="43.38042" lon="2.37553">
        <ele>586</ele>
        <time>2019-04-24T09:17:45 02:00</time>
      </trkpt>
      <trkpt lat="43.38062" lon="2.37575">
        <ele>585</ele>
        <time>2019-04-24T09:17:50 02:00</time>
      </trkpt>
      <trkpt lat="43.38076" lon="2.37587">
        <ele>587</ele>
        <time>2019-04-24T09:17:55 02:00</time>
      </trkpt>
      <trkpt lat="43.38076" lon="2.3763">
        <ele>576</ele>
        <time>2019-04-24T09:18:00 02:00</time>
      </trkpt>
      <trkpt lat="43.38052" lon="2.37694">
        <ele>578</ele>
        <time>2019-04-24T09:18:05 02:00</time>
      </trkpt>
      <trkpt lat="43.38009" lon="2.37783">
        <ele>579</ele>
        <time>2019-04-24T09:18:10 02:00</time>
      </trkpt>
      <trkpt lat="43.38002" lon="2.37815">
        <ele>580</ele>
        <time>2019-04-24T09:18:15 02:00</time>
      </trkpt>
      <trkpt lat="43.38" lon="2.37835">
        <ele>582</ele>
        <time>2019-04-24T09:18:20 02:00</time>
      </trkpt>
      <trkpt lat="43.3801" lon="2.37882">
        <ele>585</ele>
        <time>2019-04-24T09:18:25 02:00</time>
      </trkpt>
      <trkpt lat="43.38027" lon="2.37836">
        <ele>593</ele>
        <time>2019-04-24T09:18:30 02:00</time>
      </trkpt>
      <trkpt lat="43.3806" lon="2.37789">
        <ele>599</ele>
        <time>2019-04-24T09:18:35 02:00</time>
      </trkpt>
      <trkpt lat="43.38089" lon="2.37773">
        <ele>607</ele>
        <time>2019-04-24T09:18:40 02:00</time>
      </trkpt>
      <trkpt lat="43.38097" lon="2.3776">
        <ele>609</ele>
        <time>2019-04-24T09:18:45 02:00</time>
      </trkpt>
      <trkpt lat="43.3814" lon="2.37695">
        <ele>621</ele>
        <time>2019-04-24T09:18:50 02:00</time>
      </trkpt>
      <trkpt lat="43.38155" lon="2.37669">
        <ele>624</ele>
        <time>2019-04-24T09:18:55 02:00</time>
      </trkpt>
      <trkpt lat="43.38163" lon="2.37647">
        <ele>627</ele>
        <time>2019-04-24T09:19:00 02:00</time>
      </trkpt>
      <trkpt lat="43.38168" lon="2.37614">
        <ele>632</ele>
        <time>2019-04-24T09:19:05 02:00</time>
      </trkpt>
      <trkpt lat="43.38168" lon="2.37582">
        <ele>635</ele>
        <time>2019-04-24T09:19:10 02:00</time>
      </trkpt>
      <trkpt lat="43.3816" lon="2.37517">
        <ele>640</ele>
        <time>2019-04-24T09:19:15 02:00</time>
      </trkpt>
      <trkpt lat="43.38146" lon="2.37458">
        <ele>648</ele>
        <time>2019-04-24T09:19:20 02:00</time>
      </trkpt>
      <trkpt lat="43.3813" lon="2.37433">
        <ele>650</ele>
        <time>2019-04-24T09:19:25 02:00</time>
      </trkpt>
      <trkpt lat="43.38098" lon="2.37396">
        <ele>652</ele>
        <time>2019-04-24T09:19:30 02:00</time>
      </trkpt>
      <trkpt lat="43.38087" lon="2.37377">
        <ele>652</ele>
        <time>2019-04-24T09:19:35 02:00</time>
      </trkpt>
      <trkpt lat="43.38085" lon="2.37362">
        <ele>651</ele>
        <time>2019-04-24T09:19:40 02:00</time>
      </trkpt>
      <trkpt lat="43.38091" lon="2.37355">
        <ele>651</ele>
        <time>2019-04-24T09:19:45 02:00</time>
      </trkpt>
      <trkpt lat="43.38128" lon="2.37332">
        <ele>652</ele>
        <time>2019-04-24T09:19:50 02:00</time>
      </trkpt>
      <trkpt lat="43.38176" lon="2.3728">
        <ele>652</ele>
        <time>2019-04-24T09:19:55 02:00</time>
      </trkpt>
      <trkpt lat="43.38196" lon="2.37263">
        <ele>652</ele>
        <time>2019-04-24T09:20:00 02:00</time>
      </trkpt>
      <trkpt lat="43.38229" lon="2.3724">
        <ele>654</ele>
        <time>2019-04-24T09:20:05 02:00</time>
      </trkpt>
      <trkpt lat="43.38252" lon="2.37218">
        <ele>653</ele>
        <time>2019-04-24T09:20:10 02:00</time>
      </trkpt>
      <trkpt lat="43.38268" lon="2.37208">
        <ele>652</ele>
        <time>2019-04-24T09:20:15 02:00</time>
      </trkpt>
      <trkpt lat="43.38305" lon="2.37198">
        <ele>654</ele>
        <time>2019-04-24T09:20:20 02:00</time>
      </trkpt>
      <trkpt lat="43.38336" lon="2.37184">
        <ele>655</ele>
        <time>2019-04-24T09:20:25 02:00</time>
      </trkpt>
      <trkpt lat="43.38374" lon="2.37158">
        <ele>657</ele>
        <time>2019-04-24T09:20:30 02:00</time>
      </trkpt>
      <trkpt lat="43.38393" lon="2.37155">
        <ele>663</ele>
        <time>2019-04-24T09:20:35 02:00</time>
      </trkpt>
      <trkpt lat="43.38406" lon="2.37149">
        <ele>669</ele>
        <time>2019-04-24T09:20:40 02:00</time>
      </trkpt>
      <trkpt lat="43.384" lon="2.37124">
        <ele>672</ele>
        <time>2019-04-24T09:20:45 02:00</time>
      </trkpt>
      <trkpt lat="43.38384" lon="2.37055">
        <ele>680</ele>
        <time>2019-04-24T09:20:50 02:00</time>
      </trkpt>
      <trkpt lat="43.38377" lon="2.37041">
        <ele>682</ele>
        <time>2019-04-24T09:20:55 02:00</time>
      </trkpt>
      <trkpt lat="43.38369" lon="2.37029">
        <ele>683</ele>
        <time>2019-04-24T09:21:00 02:00</time>
      </trkpt>
      <trkpt lat="43.38365" lon="2.37001">
        <ele>688</ele>
        <time>2019-04-24T09:21:05 02:00</time>
      </trkpt>
      <trkpt lat="43.38349" lon="2.36949">
        <ele>694</ele>
        <time>2019-04-24T09:21:10 02:00</time>
      </trkpt>
      <trkpt lat="43.38349" lon="2.3693">
        <ele>697</ele>
        <time>2019-04-24T09:21:15 02:00</time>
      </trkpt>
      <trkpt lat="43.38346" lon="2.36915">
        <ele>698</ele>
        <time>2019-04-24T09:21:20 02:00</time>
      </trkpt>
      <trkpt lat="43.38337" lon="2.36894">
        <ele>696</ele>
        <time>2019-04-24T09:21:25 02:00</time>
      </trkpt>
      <trkpt lat="43.3834" lon="2.36887">
        <ele>697</ele>
        <time>2019-04-24T09:21:30 02:00</time>
      </trkpt>
      <trkpt lat="43.3836" lon="2.36895">
        <ele>702</ele>
        <time>2019-04-24T09:21:35 02:00</time>
      </trkpt>
      <trkpt lat="43.3837" lon="2.36894">
        <ele>704</ele>
        <time>2019-04-24T09:21:40 02:00</time>
      </trkpt>
      <trkpt lat="43.38426" lon="2.36947">
        <ele>719</ele>
        <time>2019-04-24T09:21:45 02:00</time>
      </trkpt>
      <trkpt lat="43.38447" lon="2.36949">
        <ele>723</ele>
        <time>2019-04-24T09:21:50 02:00</time>
      </trkpt>
      <trkpt lat="43.38488" lon="2.36964">
        <ele>732</ele>
        <time>2019-04-24T09:21:55 02:00</time>
      </trkpt>
      <trkpt lat="43.38504" lon="2.3698">
        <ele>737</ele>
        <time>2019-04-24T09:22:00 02:00</time>
      </trkpt>
      <trkpt lat="43.38513" lon="2.3698">
        <ele>738</ele>
        <time>2019-04-24T09:22:05 02:00</time>
      </trkpt>
      <trkpt lat="43.38521" lon="2.36986">
        <ele>740</ele>
        <time>2019-04-24T09:22:10 02:00</time>
      </trkpt>
      <trkpt lat="43.38531" lon="2.36977">
        <ele>741</ele>
        <time>2019-04-24T09:22:15 02:00</time>
      </trkpt>
      <trkpt lat="43.38538" lon="2.36973">
        <ele>741</ele>
        <time>2019-04-24T09:22:20 02:00</time>
      </trkpt>
      <trkpt lat="43.3856" lon="2.36972">
        <ele>741</ele>
        <time>2019-04-24T09:22:25 02:00</time>
      </trkpt>
      <trkpt lat="43.38569" lon="2.36988">
        <ele>745</ele>
        <time>2019-04-24T09:22:30 02:00</time>
      </trkpt>
      <trkpt lat="43.38575" lon="2.37009">
        <ele>749</ele>
        <time>2019-04-24T09:22:35 02:00</time>
      </trkpt>
      <trkpt lat="43.38609" lon="2.37037">
        <ele>750</ele>
        <time>2019-04-24T09:22:40 02:00</time>
      </trkpt>
      <trkpt lat="43.38651" lon="2.37083">
        <ele>757</ele>
        <time>2019-04-24T09:22:45 02:00</time>
      </trkpt>
      <trkpt lat="43.3866" lon="2.37087">
        <ele>758</ele>
        <time>2019-04-24T09:22:50 02:00</time>
      </trkpt>
      <trkpt lat="43.38671" lon="2.37087">
        <ele>759</ele>
        <time>2019-04-24T09:22:55 02:00</time>
      </trkpt>
      <trkpt lat="43.38683" lon="2.37086">
        <ele>762</ele>
        <time>2019-04-24T09:23:00 02:00</time>
      </trkpt>
      <trkpt lat="43.38694" lon="2.37084">
        <ele>764</ele>
        <time>2019-04-24T09:23:05 02:00</time>
      </trkpt>
      <trkpt lat="43.38708" lon="2.37111">
        <ele>768</ele>
        <time>2019-04-24T09:23:10 02:00</time>
      </trkpt>
      <trkpt lat="43.3873" lon="2.37143">
        <ele>773</ele>
        <time>2019-04-24T09:23:15 02:00</time>
      </trkpt>
      <trkpt lat="43.38739" lon="2.37152">
        <ele>775</ele>
        <time>2019-04-24T09:23:20 02:00</time>
      </trkpt>
      <trkpt lat="43.3875" lon="2.37153">
        <ele>778</ele>
        <time>2019-04-24T09:23:25 02:00</time>
      </trkpt>
      <trkpt lat="43.38758" lon="2.37161">
        <ele>779</ele>
        <time>2019-04-24T09:23:30 02:00</time>
      </trkpt>
      <trkpt lat="43.38773" lon="2.37187">
        <ele>780</ele>
        <time>2019-04-24T09:23:35 02:00</time>
      </trkpt>
      <trkpt lat="43.38775" lon="2.37215">
        <ele>780</ele>
        <time>2019-04-24T09:23:40 02:00</time>
      </trkpt>
      <trkpt lat="43.38778" lon="2.37225">
        <ele>780</ele>
        <time>2019-04-24T09:23:45 02:00</time>
      </trkpt>
      <trkpt lat="43.38788" lon="2.37239">
        <ele>780</ele>
        <time>2019-04-24T09:23:50 02:00</time>
      </trkpt>
      <trkpt lat="43.38785" lon="2.37253">
        <ele>780</ele>
        <time>2019-04-24T09:23:55 02:00</time>
      </trkpt>
      <trkpt lat="43.38777" lon="2.37265">
        <ele>779</ele>
        <time>2019-04-24T09:24:00 02:00</time>
      </trkpt>
      <trkpt lat="43.38758" lon="2.37278">
        <ele>776</ele>
        <time>2019-04-24T09:24:05 02:00</time>
      </trkpt>
      <trkpt lat="43.38754" lon="2.37291">
        <ele>776</ele>
        <time>2019-04-24T09:24:10 02:00</time>
      </trkpt>
      <trkpt lat="43.38741" lon="2.37315">
        <ele>775</ele>
        <time>2019-04-24T09:24:15 02:00</time>
      </trkpt>
      <trkpt lat="43.38689" lon="2.37391">
        <ele>772</ele>
        <time>2019-04-24T09:24:20 02:00</time>
      </trkpt>
      <trkpt lat="43.3873" lon="2.37578">
        <ele>774</ele>
        <time>2019-04-24T09:24:25 02:00</time>
      </trkpt>
      <trkpt lat="43.38739" lon="2.37614">
        <ele>772</ele>
        <time>2019-04-24T09:24:30 02:00</time>
      </trkpt>
      <trkpt lat="43.38762" lon="2.37558">
        <ele>777</ele>
        <time>2019-04-24T09:24:35 02:00</time>
      </trkpt>
      <trkpt lat="43.38776" lon="2.37505">
        <ele>780</ele>
        <time>2019-04-24T09:24:40 02:00</time>
      </trkpt>
      <trkpt lat="43.38796" lon="2.37453">
        <ele>780</ele>
        <time>2019-04-24T09:24:45 02:00</time>
      </trkpt>
      <trkpt lat="43.38827" lon="2.37383">
        <ele>780</ele>
        <time>2019-04-24T09:24:50 02:00</time>
      </trkpt>
      <trkpt lat="43.38895" lon="2.37288">
        <ele>780</ele>
        <time>2019-04-24T09:24:55 02:00</time>
      </trkpt>
      <trkpt lat="43.38947" lon="2.37236">
        <ele>780</ele>
        <time>2019-04-24T09:25:00 02:00</time>
      </trkpt>
      <trkpt lat="43.39003" lon="2.37178">
        <ele>780</ele>
        <time>2019-04-24T09:25:05 02:00</time>
      </trkpt>
      <trkpt lat="43.39072" lon="2.37121">
        <ele>780</ele>
        <time>2019-04-24T09:25:10 02:00</time>
      </trkpt>
      <trkpt lat="43.39112" lon="2.37095">
        <ele>780</ele>
        <time>2019-04-24T09:25:15 02:00</time>
      </trkpt>
      <trkpt lat="43.39192" lon="2.37049">
        <ele>774</ele>
        <time>2019-04-24T09:25:20 02:00</time>
      </trkpt>
      <trkpt lat="43.39268" lon="2.37008">
        <ele>772</ele>
        <time>2019-04-24T09:25:25 02:00</time>
      </trkpt>
      <trkpt lat="43.39378" lon="2.36941">
        <ele>782</ele>
        <time>2019-04-24T09:25:30 02:00</time>
      </trkpt>
      <trkpt lat="43.39387" lon="2.3695">
        <ele>782</ele>
        <time>2019-04-24T09:25:35 02:00</time>
      </trkpt>
      <trkpt lat="43.39431" lon="2.36981">
        <ele>783</ele>
        <time>2019-04-24T09:25:40 02:00</time>
      </trkpt>
      <trkpt lat="43.39552" lon="2.3705">
        <ele>778</ele>
        <time>2019-04-24T09:25:45 02:00</time>
      </trkpt>
      <trkpt lat="43.39591" lon="2.3706">
        <ele>774</ele>
        <time>2019-04-24T09:25:50 02:00</time>
      </trkpt>
      <trkpt lat="43.39604" lon="2.37064">
        <ele>772</ele>
        <time>2019-04-24T09:25:55 02:00</time>
      </trkpt>
      <trkpt lat="43.39643" lon="2.37045">
        <ele>767</ele>
        <time>2019-04-24T09:26:00 02:00</time>
      </trkpt>
      <trkpt lat="43.39667" lon="2.37028">
        <ele>763</ele>
        <time>2019-04-24T09:26:05 02:00</time>
      </trkpt>
      <trkpt lat="43.3972" lon="2.36962">
        <ele>756</ele>
        <time>2019-04-24T09:26:10 02:00</time>
      </trkpt>
      <trkpt lat="43.3975" lon="2.36932">
        <ele>751</ele>
        <time>2019-04-24T09:26:15 02:00</time>
      </trkpt>
      <trkpt lat="43.39747" lon="2.36948">
        <ele>749</ele>
        <time>2019-04-24T09:26:20 02:00</time>
      </trkpt>
      <trkpt lat="43.39738" lon="2.36965">
        <ele>749</ele>
        <time>2019-04-24T09:26:25 02:00</time>
      </trkpt>
      <trkpt lat="43.3973" lon="2.3699">
        <ele>746</ele>
        <time>2019-04-24T09:26:30 02:00</time>
      </trkpt>
      <trkpt lat="43.39723" lon="2.37017">
        <ele>738</ele>
        <time>2019-04-24T09:26:35 02:00</time>
      </trkpt>
      <trkpt lat="43.397" lon="2.37043">
        <ele>744</ele>
        <time>2019-04-24T09:26:40 02:00</time>
      </trkpt>
      <trkpt lat="43.3969" lon="2.37065">
        <ele>744</ele>
        <time>2019-04-24T09:26:45 02:00</time>
      </trkpt>
      <trkpt lat="43.39694" lon="2.3709">
        <ele>736</ele>
        <time>2019-04-24T09:26:50 02:00</time>
      </trkpt>
      <trkpt lat="43.39713" lon="2.37101">
        <ele>725</ele>
        <time>2019-04-24T09:26:55 02:00</time>
      </trkpt>
      <trkpt lat="43.39719" lon="2.37118">
        <ele>724</ele>
        <time>2019-04-24T09:27:00 02:00</time>
      </trkpt>
      <trkpt lat="43.39711" lon="2.37102">
        <ele>727</ele>
        <time>2019-04-24T09:27:05 02:00</time>
      </trkpt>
      <trkpt lat="43.39693" lon="2.3709">
        <ele>737</ele>
        <time>2019-04-24T09:27:10 02:00</time>
      </trkpt>
      <trkpt lat="43.3969" lon="2.37066">
        <ele>743</ele>
        <time>2019-04-24T09:27:15 02:00</time>
      </trkpt>
      <trkpt lat="43.39702" lon="2.37041">
        <ele>743</ele>
        <time>2019-04-24T09:27:20 02:00</time>
      </trkpt>
      <trkpt lat="43.39724" lon="2.37014">
        <ele>739</ele>
        <time>2019-04-24T09:27:25 02:00</time>
      </trkpt>
      <trkpt lat="43.39733" lon="2.36982">
        <ele>747</ele>
        <time>2019-04-24T09:27:30 02:00</time>
      </trkpt>
      <trkpt lat="43.39804" lon="2.36889">
        <ele>733</ele>
        <time>2019-04-24T09:27:35 02:00</time>
      </trkpt>
      <trkpt lat="43.39836" lon="2.36826">
        <ele>732</ele>
        <time>2019-04-24T09:27:40 02:00</time>
      </trkpt>
      <trkpt lat="43.39848" lon="2.36819">
        <ele>732</ele>
        <time>2019-04-24T09:27:45 02:00</time>
      </trkpt>
      <trkpt lat="43.39862" lon="2.36831">
        <ele>730</ele>
        <time>2019-04-24T09:27:50 02:00</time>
      </trkpt>
      <trkpt lat="43.39864" lon="2.36847">
        <ele>733</ele>
        <time>2019-04-24T09:27:55 02:00</time>
      </trkpt>
      <trkpt lat="43.39857" lon="2.36892">
        <ele>737</ele>
        <time>2019-04-24T09:28:00 02:00</time>
      </trkpt>
      <trkpt lat="43.39852" lon="2.36969">
        <ele>746</ele>
        <time>2019-04-24T09:28:05 02:00</time>
      </trkpt>
      <trkpt lat="43.39851" lon="2.37027">
        <ele>752</ele>
        <time>2019-04-24T09:28:10 02:00</time>
      </trkpt>
      <trkpt lat="43.39864" lon="2.37066">
        <ele>754</ele>
        <time>2019-04-24T09:28:15 02:00</time>
      </trkpt>
      <trkpt lat="43.3988" lon="2.37083">
        <ele>757</ele>
        <time>2019-04-24T09:28:20 02:00</time>
      </trkpt>
      <trkpt lat="43.39901" lon="2.37094">
        <ele>760</ele>
        <time>2019-04-24T09:28:25 02:00</time>
      </trkpt>
      <trkpt lat="43.39918" lon="2.37112">
        <ele>762</ele>
        <time>2019-04-24T09:28:30 02:00</time>
      </trkpt>
      <trkpt lat="43.39944" lon="2.37162">
        <ele>750</ele>
        <time>2019-04-24T09:28:35 02:00</time>
      </trkpt>
      <trkpt lat="43.39959" lon="2.3717">
        <ele>750</ele>
        <time>2019-04-24T09:28:40 02:00</time>
      </trkpt>
      <trkpt lat="43.39987" lon="2.3717">
        <ele>755</ele>
        <time>2019-04-24T09:28:45 02:00</time>
      </trkpt>
      <trkpt lat="43.40034" lon="2.37197">
        <ele>749</ele>
        <time>2019-04-24T09:28:50 02:00</time>
      </trkpt>
      <trkpt lat="43.40048" lon="2.37217">
        <ele>746</ele>
        <time>2019-04-24T09:28:55 02:00</time>
      </trkpt>
      <trkpt lat="43.40068" lon="2.37263">
        <ele>741</ele>
        <time>2019-04-24T09:29:00 02:00</time>
      </trkpt>
      <trkpt lat="43.40091" lon="2.3728">
        <ele>744</ele>
        <time>2019-04-24T09:29:05 02:00</time>
      </trkpt>
      <trkpt lat="43.40089" lon="2.3729">
        <ele>742</ele>
        <time>2019-04-24T09:29:10 02:00</time>
      </trkpt>
      <trkpt lat="43.40063" lon="2.37407">
        <ele>745</ele>
        <time>2019-04-24T09:29:15 02:00</time>
      </trkpt>
      <trkpt lat="43.40051" lon="2.37518">
        <ele>745</ele>
        <time>2019-04-24T09:29:20 02:00</time>
      </trkpt>
      <trkpt lat="43.40054" lon="2.3762">
        <ele>748</ele>
        <time>2019-04-24T09:29:25 02:00</time>
      </trkpt>
      <trkpt lat="43.40066" lon="2.3774">
        <ele>758</ele>
        <time>2019-04-24T09:29:30 02:00</time>
      </trkpt>
      <trkpt lat="43.40096" lon="2.37788">
        <ele>760</ele>
        <time>2019-04-24T09:29:35 02:00</time>
      </trkpt>
      <trkpt lat="43.40136" lon="2.37816">
        <ele>760</ele>
        <time>2019-04-24T09:29:40 02:00</time>
      </trkpt>
      <trkpt lat="43.40097" lon="2.37789">
        <ele>760</ele>
        <time>2019-04-24T09:29:45 02:00</time>
      </trkpt>
      <trkpt lat="43.40066" lon="2.37739">
        <ele>758</ele>
        <time>2019-04-24T09:29:50 02:00</time>
      </trkpt>
      <trkpt lat="43.40054" lon="2.37619">
        <ele>748</ele>
        <time>2019-04-24T09:29:55 02:00</time>
      </trkpt>
      <trkpt lat="43.40051" lon="2.37516">
        <ele>745</ele>
        <time>2019-04-24T09:30:00 02:00</time>
      </trkpt>
      <trkpt lat="43.4006" lon="2.37409">
        <ele>744</ele>
        <time>2019-04-24T09:30:05 02:00</time>
      </trkpt>
      <trkpt lat="43.40084" lon="2.37295">
        <ele>740</ele>
        <time>2019-04-24T09:30:10 02:00</time>
      </trkpt>
      <trkpt lat="43.40017" lon="2.37394">
        <ele>724</ele>
        <time>2019-04-24T09:30:15 02:00</time>
      </trkpt>
      <trkpt lat="43.39977" lon="2.37482">
        <ele>714</ele>
        <time>2019-04-24T09:30:20 02:00</time>
      </trkpt>
      <trkpt lat="43.39953" lon="2.37522">
        <ele>711</ele>
        <time>2019-04-24T09:30:25 02:00</time>
      </trkpt>
      <trkpt lat="43.39945" lon="2.37547">
        <ele>711</ele>
        <time>2019-04-24T09:30:30 02:00</time>
      </trkpt>
      <trkpt lat="43.39942" lon="2.37536">
        <ele>709</ele>
        <time>2019-04-24T09:30:35 02:00</time>
      </trkpt>
      <trkpt lat="43.39945" lon="2.37497">
        <ele>705</ele>
        <time>2019-04-24T09:30:40 02:00</time>
      </trkpt>
      <trkpt lat="43.3995" lon="2.37474">
        <ele>703</ele>
        <time>2019-04-24T09:30:45 02:00</time>
      </trkpt>
      <trkpt lat="43.39936" lon="2.37488">
        <ele>699</ele>
        <time>2019-04-24T09:30:50 02:00</time>
      </trkpt>
      <trkpt lat="43.39914" lon="2.37573">
        <ele>700</ele>
        <time>2019-04-24T09:30:55 02:00</time>
      </trkpt>
      <trkpt lat="43.39912" lon="2.37598">
        <ele>700</ele>
        <time>2019-04-24T09:31:00 02:00</time>
      </trkpt>
      <trkpt lat="43.39908" lon="2.37626">
        <ele>697</ele>
        <time>2019-04-24T09:31:05 02:00</time>
      </trkpt>
      <trkpt lat="43.39911" lon="2.37676">
        <ele>697</ele>
        <time>2019-04-24T09:31:10 02:00</time>
      </trkpt>
      <trkpt lat="43.39913" lon="2.37705">
        <ele>696</ele>
        <time>2019-04-24T09:31:15 02:00</time>
      </trkpt>
      <trkpt lat="43.39905" lon="2.37756">
        <ele>693</ele>
        <time>2019-04-24T09:31:20 02:00</time>
      </trkpt>
      <trkpt lat="43.39899" lon="2.37772">
        <ele>692</ele>
        <time>2019-04-24T09:31:25 02:00</time>
      </trkpt>
      <trkpt lat="43.39878" lon="2.37811">
        <ele>687</ele>
        <time>2019-04-24T09:31:30 02:00</time>
      </trkpt>
      <trkpt lat="43.39842" lon="2.37859">
        <ele>685</ele>
        <time>2019-04-24T09:31:35 02:00</time>
      </trkpt>
      <trkpt lat="43.39823" lon="2.37909">
        <ele>689</ele>
        <time>2019-04-24T09:31:40 02:00</time>
      </trkpt>
      <trkpt lat="43.39813" lon="2.37942">
        <ele>691</ele>
        <time>2019-04-24T09:31:45 02:00</time>
      </trkpt>
      <trkpt lat="43.39806" lon="2.37993">
        <ele>692</ele>
        <time>2019-04-24T09:31:50 02:00</time>
      </trkpt>
      <trkpt lat="43.39809" lon="2.38031">
        <ele>690</ele>
        <time>2019-04-24T09:31:55 02:00</time>
      </trkpt>
      <trkpt lat="43.39821" lon="2.38047">
        <ele>691</ele>
        <time>2019-04-24T09:32:00 02:00</time>
      </trkpt>
      <trkpt lat="43.39834" lon="2.38059">
        <ele>693</ele>
        <time>2019-04-24T09:32:05 02:00</time>
      </trkpt>
      <trkpt lat="43.39859" lon="2.38063">
        <ele>699</ele>
        <time>2019-04-24T09:32:10 02:00</time>
      </trkpt>
      <trkpt lat="43.3987" lon="2.38085">
        <ele>696</ele>
        <time>2019-04-24T09:32:15 02:00</time>
      </trkpt>
      <trkpt lat="43.39872" lon="2.38107">
        <ele>689</ele>
        <time>2019-04-24T09:32:20 02:00</time>
      </trkpt>
      <trkpt lat="43.39865" lon="2.38122">
        <ele>686</ele>
        <time>2019-04-24T09:32:25 02:00</time>
      </trkpt>
      <trkpt lat="43.39849" lon="2.38132">
        <ele>680</ele>
        <time>2019-04-24T09:32:30 02:00</time>
      </trkpt>
      <trkpt lat="43.39834" lon="2.38137">
        <ele>674</ele>
        <time>2019-04-24T09:32:35 02:00</time>
      </trkpt>
      <trkpt lat="43.39824" lon="2.38154">
        <ele>677</ele>
        <time>2019-04-24T09:32:40 02:00</time>
      </trkpt>
      <trkpt lat="43.39714" lon="2.38246">
        <ele>662</ele>
        <time>2019-04-24T09:32:45 02:00</time>
      </trkpt>
      <trkpt lat="43.39657" lon="2.38266">
        <ele>660</ele>
        <time>2019-04-24T09:32:50 02:00</time>
      </trkpt>
      <trkpt lat="43.3965" lon="2.38274">
        <ele>661</ele>
        <time>2019-04-24T09:32:55 02:00</time>
      </trkpt>
      <trkpt lat="43.3964" lon="2.38304">
        <ele>667</ele>
        <time>2019-04-24T09:33:00 02:00</time>
      </trkpt>
      <trkpt lat="43.39636" lon="2.38323">
        <ele>669</ele>
        <time>2019-04-24T09:33:05 02:00</time>
      </trkpt>
      <trkpt lat="43.39625" lon="2.38349">
        <ele>667</ele>
        <time>2019-04-24T09:33:10 02:00</time>
      </trkpt>
      <trkpt lat="43.39598" lon="2.38391">
        <ele>659</ele>
        <time>2019-04-24T09:33:15 02:00</time>
      </trkpt>
      <trkpt lat="43.39581" lon="2.38403">
        <ele>655</ele>
        <time>2019-04-24T09:33:20 02:00</time>
      </trkpt>
      <trkpt lat="43.39586" lon="2.3838">
        <ele>653</ele>
        <time>2019-04-24T09:33:25 02:00</time>
      </trkpt>
      <trkpt lat="43.39581" lon="2.38376">
        <ele>650</ele>
        <time>2019-04-24T09:33:30 02:00</time>
      </trkpt>
      <trkpt lat="43.3957" lon="2.38374">
        <ele>644</ele>
        <time>2019-04-24T09:33:35 02:00</time>
      </trkpt>
      <trkpt lat="43.39544" lon="2.38394">
        <ele>637</ele>
        <time>2019-04-24T09:33:40 02:00</time>
      </trkpt>
      <trkpt lat="43.39484" lon="2.38472">
        <ele>623</ele>
        <time>2019-04-24T09:33:45 02:00</time>
      </trkpt>
      <trkpt lat="43.39444" lon="2.38567">
        <ele>614</ele>
        <time>2019-04-24T09:33:50 02:00</time>
      </trkpt>
      <trkpt lat="43.39444" lon="2.38576">
        <ele>615</ele>
        <time>2019-04-24T09:33:55 02:00</time>
      </trkpt>
      <trkpt lat="43.39433" lon="2.38594">
        <ele>612</ele>
        <time>2019-04-24T09:34:00 02:00</time>
      </trkpt>
      <trkpt lat="43.3938" lon="2.38631">
        <ele>595</ele>
        <time>2019-04-24T09:34:05 02:00</time>
      </trkpt>
      <trkpt lat="43.39355" lon="2.38658">
        <ele>592</ele>
        <time>2019-04-24T09:34:10 02:00</time>
      </trkpt>
      <trkpt lat="43.39333" lon="2.38672">
        <ele>588</ele>
        <time>2019-04-24T09:34:15 02:00</time>
      </trkpt>
      <trkpt lat="43.39302" lon="2.3868">
        <ele>582</ele>
        <time>2019-04-24T09:34:20 02:00</time>
      </trkpt>
      <trkpt lat="43.39257" lon="2.3868">
        <ele>569</ele>
        <time>2019-04-24T09:34:25 02:00</time>
      </trkpt>
      <trkpt lat="43.39267" lon="2.38628">
        <ele>560</ele>
        <time>2019-04-24T09:34:30 02:00</time>
      </trkpt>
      <trkpt lat="43.39268" lon="2.38609">
        <ele>555</ele>
        <time>2019-04-24T09:34:35 02:00</time>
      </trkpt>
      <trkpt lat="43.39253" lon="2.38619">
        <ele>554</ele>
        <time>2019-04-24T09:34:40 02:00</time>
      </trkpt>
      <trkpt lat="43.39237" lon="2.38646">
        <ele>555</ele>
        <time>2019-04-24T09:34:45 02:00</time>
      </trkpt>
      <trkpt lat="43.39208" lon="2.38731">
        <ele>555</ele>
        <time>2019-04-24T09:34:50 02:00</time>
      </trkpt>
      <trkpt lat="43.39191" lon="2.38763">
        <ele>552</ele>
        <time>2019-04-24T09:34:55 02:00</time>
      </trkpt>
      <trkpt lat="43.3917" lon="2.38776">
        <ele>542</ele>
        <time>2019-04-24T09:35:00 02:00</time>
      </trkpt>
      <trkpt lat="43.39134" lon="2.38776">
        <ele>531</ele>
        <time>2019-04-24T09:35:05 02:00</time>
      </trkpt>
      <trkpt lat="43.39091" lon="2.38746">
        <ele>515</ele>
        <time>2019-04-24T09:35:10 02:00</time>
      </trkpt>
      <trkpt lat="43.39035" lon="2.38757">
        <ele>506</ele>
        <time>2019-04-24T09:35:15 02:00</time>
      </trkpt>
      <trkpt lat="43.39004" lon="2.38776">
        <ele>506</ele>
        <time>2019-04-24T09:35:20 02:00</time>
      </trkpt>
      <trkpt lat="43.3899" lon="2.38811">
        <ele>511</ele>
        <time>2019-04-24T09:35:25 02:00</time>
      </trkpt>
      <trkpt lat="43.38989" lon="2.38854">
        <ele>513</ele>
        <time>2019-04-24T09:35:30 02:00</time>
      </trkpt>
      <trkpt lat="43.38985" lon="2.38909">
        <ele>509</ele>
        <time>2019-04-24T09:35:35 02:00</time>
      </trkpt>
      <trkpt lat="43.38984" lon="2.38954">
        <ele>511</ele>
        <time>2019-04-24T09:35:40 02:00</time>
      </trkpt>
      <trkpt lat="43.3896" lon="2.38993">
        <ele>502</ele>
        <time>2019-04-24T09:35:45 02:00</time>
      </trkpt>
      <trkpt lat="43.3894" lon="2.39014">
        <ele>495</ele>
        <time>2019-04-24T09:35:50 02:00</time>
      </trkpt>
      <trkpt lat="43.38921" lon="2.39047">
        <ele>488</ele>
        <time>2019-04-24T09:35:55 02:00</time>
      </trkpt>
      <trkpt lat="43.38895" lon="2.39107">
        <ele>483</ele>
        <time>2019-04-24T09:36:00 02:00</time>
      </trkpt>
      <trkpt lat="43.38896" lon="2.39139">
        <ele>488</ele>
        <time>2019-04-24T09:36:05 02:00</time>
      </trkpt>
      <trkpt lat="43.38904" lon="2.39204">
        <ele>484</ele>
        <time>2019-04-24T09:36:10 02:00</time>
      </trkpt>
      <trkpt lat="43.38905" lon="2.39227">
        <ele>482</ele>
        <time>2019-04-24T09:36:15 02:00</time>
      </trkpt>
      <trkpt lat="43.38898" lon="2.39287">
        <ele>477</ele>
        <time>2019-04-24T09:36:20 02:00</time>
      </trkpt>
      <trkpt lat="43.38892" lon="2.3931">
        <ele>475</ele>
        <time>2019-04-24T09:36:25 02:00</time>
      </trkpt>
      <trkpt lat="43.3888" lon="2.39322">
        <ele>468</ele>
        <time>2019-04-24T09:36:30 02:00</time>
      </trkpt>
      <trkpt lat="43.38872" lon="2.39334">
        <ele>465</ele>
        <time>2019-04-24T09:36:35 02:00</time>
      </trkpt>
      <trkpt lat="43.38864" lon="2.39359">
        <ele>465</ele>
        <time>2019-04-24T09:36:40 02:00</time>
      </trkpt>
      <trkpt lat="43.38839" lon="2.39392">
        <ele>456</ele>
        <time>2019-04-24T09:36:45 02:00</time>
      </trkpt>
      <trkpt lat="43.38813" lon="2.39414">
        <ele>445</ele>
        <time>2019-04-24T09:36:50 02:00</time>
      </trkpt>
      <trkpt lat="43.38811" lon="2.39429">
        <ele>447</ele>
        <time>2019-04-24T09:36:55 02:00</time>
      </trkpt>
      <trkpt lat="43.38801" lon="2.39445">
        <ele>444</ele>
        <time>2019-04-24T09:37:00 02:00</time>
      </trkpt>
      <trkpt lat="43.38793" lon="2.39455">
        <ele>440</ele>
        <time>2019-04-24T09:37:05 02:00</time>
      </trkpt>
      <trkpt lat="43.38792" lon="2.39474">
        <ele>443</ele>
        <time>2019-04-24T09:37:10 02:00</time>
      </trkpt>
      <trkpt lat="43.38775" lon="2.39496">
        <ele>438</ele>
        <time>2019-04-24T09:37:15 02:00</time>
      </trkpt>
      <trkpt lat="43.3876" lon="2.3951">
        <ele>432</ele>
        <time>2019-04-24T09:37:20 02:00</time>
      </trkpt>
      <trkpt lat="43.38754" lon="2.3952">
        <ele>432</ele>
        <time>2019-04-24T09:37:25 02:00</time>
      </trkpt>
      <trkpt lat="43.38749" lon="2.39559">
        <ele>436</ele>
        <time>2019-04-24T09:37:30 02:00</time>
      </trkpt>
      <trkpt lat="43.38733" lon="2.39611">
        <ele>428</ele>
        <time>2019-04-24T09:37:35 02:00</time>
      </trkpt>
      <trkpt lat="43.38708" lon="2.39631">
        <ele>419</ele>
        <time>2019-04-24T09:37:40 02:00</time>
      </trkpt>
      <trkpt lat="43.387" lon="2.39632">
        <ele>417</ele>
        <time>2019-04-24T09:37:45 02:00</time>
      </trkpt>
      <trkpt lat="43.38693" lon="2.39627">
        <ele>415</ele>
        <time>2019-04-24T09:37:50 02:00</time>
      </trkpt>
      <trkpt lat="43.38692" lon="2.39615">
        <ele>414</ele>
        <time>2019-04-24T09:37:55 02:00</time>
      </trkpt>
      <trkpt lat="43.38692" lon="2.39577">
        <ele>412</ele>
        <time>2019-04-24T09:38:00 02:00</time>
      </trkpt>
      <trkpt lat="43.3869" lon="2.39563">
        <ele>411</ele>
        <time>2019-04-24T09:38:05 02:00</time>
      </trkpt>
      <trkpt lat="43.38682" lon="2.39538">
        <ele>410</ele>
        <time>2019-04-24T09:38:10 02:00</time>
      </trkpt>
      <trkpt lat="43.38668" lon="2.3953">
        <ele>411</ele>
        <time>2019-04-24T09:38:15 02:00</time>
      </trkpt>
      <trkpt lat="43.38658" lon="2.39531">
        <ele>411</ele>
        <time>2019-04-24T09:38:20 02:00</time>
      </trkpt>
      <trkpt lat="43.38632" lon="2.3956">
        <ele>413</ele>
        <time>2019-04-24T09:38:25 02:00</time>
      </trkpt>
      <trkpt lat="43.38608" lon="2.39581">
        <ele>411</ele>
        <time>2019-04-24T09:38:30 02:00</time>
      </trkpt>
      <trkpt lat="43.38596" lon="2.39588">
        <ele>411</ele>
        <time>2019-04-24T09:38:35 02:00</time>
      </trkpt>
      <trkpt lat="43.38564" lon="2.39586">
        <ele>404</ele>
        <time>2019-04-24T09:38:40 02:00</time>
      </trkpt>
      <trkpt lat="43.38513" lon="2.39574">
        <ele>405</ele>
        <time>2019-04-24T09:38:45 02:00</time>
      </trkpt>
      <trkpt lat="43.38489" lon="2.39575">
        <ele>407</ele>
        <time>2019-04-24T09:38:50 02:00</time>
      </trkpt>
      <trkpt lat="43.38461" lon="2.3959">
        <ele>409</ele>
        <time>2019-04-24T09:38:55 02:00</time>
      </trkpt>
      <trkpt lat="43.38436" lon="2.3961">
        <ele>408</ele>
        <time>2019-04-24T09:39:00 02:00</time>
      </trkpt>
      <trkpt lat="43.38429" lon="2.39612">
        <ele>405</ele>
        <time>2019-04-24T09:39:05 02:00</time>
      </trkpt>
      <trkpt lat="43.3841" lon="2.39628">
        <ele>405</ele>
        <time>2019-04-24T09:39:10 02:00</time>
      </trkpt>
      <trkpt lat="43.38389" lon="2.39643">
        <ele>402</ele>
        <time>2019-04-24T09:39:15 02:00</time>
      </trkpt>
      <trkpt lat="43.38382" lon="2.39642">
        <ele>403</ele>
        <time>2019-04-24T09:39:20 02:00</time>
      </trkpt>
      <trkpt lat="43.38368" lon="2.39628">
        <ele>397</ele>
        <time>2019-04-24T09:39:25 02:00</time>
      </trkpt>
      <trkpt lat="43.38339" lon="2.39609">
        <ele>396</ele>
        <time>2019-04-24T09:39:30 02:00</time>
      </trkpt>
      <trkpt lat="43.3832" lon="2.3959">
        <ele>399</ele>
        <time>2019-04-24T09:39:35 02:00</time>
      </trkpt>
      <trkpt lat="43.38304" lon="2.39562">
        <ele>398</ele>
        <time>2019-04-24T09:39:40 02:00</time>
      </trkpt>
      <trkpt lat="43.38289" lon="2.39542">
        <ele>400</ele>
        <time>2019-04-24T09:39:45 02:00</time>
      </trkpt>
      <trkpt lat="43.38271" lon="2.39531">
        <ele>402</ele>
        <time>2019-04-24T09:39:50 02:00</time>
      </trkpt>
      <trkpt lat="43.38266" lon="2.3953">
        <ele>401</ele>
        <time>2019-04-24T09:39:55 02:00</time>
      </trkpt>
      <trkpt lat="43.38245" lon="2.39552">
        <ele>404</ele>
        <time>2019-04-24T09:40:00 02:00</time>
      </trkpt>
      <trkpt lat="43.38238" lon="2.39552">
        <ele>405</ele>
        <time>2019-04-24T09:40:05 02:00</time>
      </trkpt>
      <trkpt lat="43.38237" lon="2.39536">
        <ele>403</ele>
        <time>2019-04-24T09:40:10 02:00</time>
      </trkpt>
      <trkpt lat="43.38234" lon="2.39505">
        <ele>401</ele>
        <time>2019-04-24T09:40:15 02:00</time>
      </trkpt>
      <trkpt lat="43.3823" lon="2.39493">
        <ele>402</ele>
        <time>2019-04-24T09:40:20 02:00</time>
      </trkpt>
      <trkpt lat="43.3822" lon="2.39483">
        <ele>405</ele>
        <time>2019-04-24T09:40:25 02:00</time>
      </trkpt>
      <trkpt lat="43.38206" lon="2.39484">
        <ele>412</ele>
        <time>2019-04-24T09:40:30 02:00</time>
      </trkpt>
      <trkpt lat="43.3817" lon="2.39468">
        <ele>424</ele>
        <time>2019-04-24T09:40:35 02:00</time>
      </trkpt>
      <trkpt lat="43.38155" lon="2.39456">
        <ele>427</ele>
        <time>2019-04-24T09:40:40 02:00</time>
      </trkpt>
      <trkpt lat="43.38133" lon="2.39445">
        <ele>434</ele>
        <time>2019-04-24T09:40:45 02:00</time>
      </trkpt>
      <trkpt lat="43.38128" lon="2.39435">
        <ele>432</ele>
        <time>2019-04-24T09:40:50 02:00</time>
      </trkpt>
      <trkpt lat="43.38121" lon="2.39426">
        <ele>432</ele>
        <time>2019-04-24T09:40:55 02:00</time>
      </trkpt>
      <trkpt lat="43.38112" lon="2.3941">
        <ele>430</ele>
        <time>2019-04-24T09:41:00 02:00</time>
      </trkpt>
      <trkpt lat="43.38096" lon="2.39415">
        <ele>432</ele>
        <time>2019-04-24T09:41:05 02:00</time>
      </trkpt>
      <trkpt lat="43.38062" lon="2.39417">
        <ele>432</ele>
        <time>2019-04-24T09:41:10 02:00</time>
      </trkpt>
      <trkpt lat="43.38054" lon="2.39412">
        <ele>431</ele>
        <time>2019-04-24T09:41:15 02:00</time>
      </trkpt>
      <trkpt lat="43.38049" lon="2.39403">
        <ele>431</ele>
        <time>2019-04-24T09:41:20 02:00</time>
      </trkpt>
      <trkpt lat="43.38036" lon="2.39367">
        <ele>430</ele>
        <time>2019-04-24T09:41:25 02:00</time>
      </trkpt>
      <trkpt lat="43.38018" lon="2.39338">
        <ele>436</ele>
        <time>2019-04-24T09:41:30 02:00</time>
      </trkpt>
      <trkpt lat="43.38009" lon="2.3934">
        <ele>442</ele>
        <time>2019-04-24T09:41:35 02:00</time>
      </trkpt>
      <trkpt lat="43.37958" lon="2.39237">
        <ele>439</ele>
        <time>2019-04-24T09:41:40 02:00</time>
      </trkpt>
      <trkpt lat="43.37947" lon="2.39223">
        <ele>438</ele>
        <time>2019-04-24T09:41:45 02:00</time>
      </trkpt>
      <trkpt lat="43.3792" lon="2.39231">
        <ele>456</ele>
        <time>2019-04-24T09:41:50 02:00</time>
      </trkpt>
      <trkpt lat="43.37913" lon="2.39197">
        <ele>451</ele>
        <time>2019-04-24T09:41:55 02:00</time>
      </trkpt>
      <trkpt lat="43.37914" lon="2.39153">
        <ele>446</ele>
        <time>2019-04-24T09:42:00 02:00</time>
      </trkpt>
      <trkpt lat="43.37845" lon="2.39075">
        <ele>468</ele>
        <time>2019-04-24T09:42:05 02:00</time>
      </trkpt>
      <trkpt lat="43.37823" lon="2.39034">
        <ele>475</ele>
        <time>2019-04-24T09:42:10 02:00</time>
      </trkpt>
      <trkpt lat="43.37817" lon="2.39018">
        <ele>477</ele>
        <time>2019-04-24T09:42:15 02:00</time>
      </trkpt>
      <trkpt lat="43.37811" lon="2.38984">
        <ele>477</ele>
        <time>2019-04-24T09:42:20 02:00</time>
      </trkpt>
      <trkpt lat="43.37797" lon="2.38951">
        <ele>477</ele>
        <time>2019-04-24T09:42:25 02:00</time>
      </trkpt>
      <trkpt lat="43.37781" lon="2.38954">
        <ele>483</ele>
        <time>2019-04-24T09:42:30 02:00</time>
      </trkpt>
      <trkpt lat="43.37746" lon="2.38943">
        <ele>488</ele>
        <time>2019-04-24T09:42:35 02:00</time>
      </trkpt>
      <trkpt lat="43.37692" lon="2.38941">
        <ele>492</ele>
        <time>2019-04-24T09:42:40 02:00</time>
      </trkpt>
      <trkpt lat="43.37645" lon="2.38965">
        <ele>508</ele>
        <time>2019-04-24T09:42:45 02:00</time>
      </trkpt>
      <trkpt lat="43.3763" lon="2.38967">
        <ele>513</ele>
        <time>2019-04-24T09:42:50 02:00</time>
      </trkpt>
      <trkpt lat="43.3762" lon="2.38959">
        <ele>512</ele>
        <time>2019-04-24T09:42:55 02:00</time>
      </trkpt>
      <trkpt lat="43.37525" lon="2.38864">
        <ele>521</ele>
        <time>2019-04-24T09:43:00 02:00</time>
      </trkpt>
      <trkpt lat="43.37494" lon="2.38846">
        <ele>524</ele>
        <time>2019-04-24T09:43:05 02:00</time>
      </trkpt>
      <trkpt lat="43.37474" lon="2.38814">
        <ele>522</ele>
        <time>2019-04-24T09:43:10 02:00</time>
      </trkpt>
      <trkpt lat="43.37467" lon="2.38812">
        <ele>523</ele>
        <time>2019-04-24T09:43:15 02:00</time>
      </trkpt>
      <trkpt lat="43.37459" lon="2.38827">
        <ele>523</ele>
        <time>2019-04-24T09:43:20 02:00</time>
      </trkpt>
      <trkpt lat="43.37461" lon="2.38848">
        <ele>523</ele>
        <time>2019-04-24T09:43:25 02:00</time>
      </trkpt>
      <trkpt lat="43.3746" lon="2.38864">
        <ele>522</ele>
        <time>2019-04-24T09:43:30 02:00</time>
      </trkpt>
      <trkpt lat="43.37412" lon="2.38799">
        <ele>513</ele>
        <time>2019-04-24T09:43:35 02:00</time>
      </trkpt>
      <trkpt lat="43.37318" lon="2.38706">
        <ele>500</ele>
        <time>2019-04-24T09:43:40 02:00</time>
      </trkpt>
      <trkpt lat="43.37286" lon="2.38667">
        <ele>500</ele>
        <time>2019-04-24T09:43:45 02:00</time>
      </trkpt>
      <trkpt lat="43.37255" lon="2.3865">
        <ele>495</ele>
        <time>2019-04-24T09:43:50 02:00</time>
      </trkpt>
      <trkpt lat="43.37227" lon="2.38617">
        <ele>495</ele>
        <time>2019-04-24T09:43:55 02:00</time>
      </trkpt>
      <trkpt lat="43.37194" lon="2.38597">
        <ele>489</ele>
        <time>2019-04-24T09:44:00 02:00</time>
      </trkpt>
      <trkpt lat="43.37166" lon="2.38582">
        <ele>482</ele>
        <time>2019-04-24T09:44:05 02:00</time>
      </trkpt>
      <trkpt lat="43.37118" lon="2.38547">
        <ele>480</ele>
        <time>2019-04-24T09:44:10 02:00</time>
      </trkpt>
      <trkpt lat="43.37095" lon="2.38521">
        <ele>483</ele>
        <time>2019-04-24T09:44:15 02:00</time>
      </trkpt>
      <trkpt lat="43.3705" lon="2.38508">
        <ele>471</ele>
        <time>2019-04-24T09:44:20 02:00</time>
      </trkpt>
      <trkpt lat="43.37009" lon="2.38486">
        <ele>470</ele>
        <time>2019-04-24T09:44:25 02:00</time>
      </trkpt>
      <trkpt lat="43.36959" lon="2.3847">
        <ele>467</ele>
        <time>2019-04-24T09:44:30 02:00</time>
      </trkpt>
      <trkpt lat="43.36939" lon="2.38459">
        <ele>471</ele>
        <time>2019-04-24T09:44:35 02:00</time>
      </trkpt>
      <trkpt lat="43.36915" lon="2.38465">
        <ele>465</ele>
        <time>2019-04-24T09:44:40 02:00</time>
      </trkpt>
      <trkpt lat="43.36897" lon="2.38464">
        <ele>463</ele>
        <time>2019-04-24T09:44:45 02:00</time>
      </trkpt>
      <trkpt lat="43.36861" lon="2.38458">
        <ele>461</ele>
        <time>2019-04-24T09:44:50 02:00</time>
      </trkpt>
      <trkpt lat="43.36843" lon="2.38455">
        <ele>461</ele>
        <time>2019-04-24T09:44:55 02:00</time>
      </trkpt>
      <trkpt lat="43.36824" lon="2.38448">
        <ele>462</ele>
        <time>2019-04-24T09:45:00 02:00</time>
      </trkpt>
      <trkpt lat="43.36809" lon="2.38436">
        <ele>465</ele>
        <time>2019-04-24T09:45:05 02:00</time>
      </trkpt>
      <trkpt lat="43.36789" lon="2.38426">
        <ele>463</ele>
        <time>2019-04-24T09:45:10 02:00</time>
      </trkpt>
      <trkpt lat="43.36771" lon="2.38414">
        <ele>464</ele>
        <time>2019-04-24T09:45:15 02:00</time>
      </trkpt>
      <trkpt lat="43.36754" lon="2.38407">
        <ele>464</ele>
        <time>2019-04-24T09:45:20 02:00</time>
      </trkpt>
      <trkpt lat="43.3672" lon="2.38404">
        <ele>460</ele>
        <time>2019-04-24T09:45:25 02:00</time>
      </trkpt>
      <trkpt lat="43.36709" lon="2.38396">
        <ele>460</ele>
        <time>2019-04-24T09:45:30 02:00</time>
      </trkpt>
      <trkpt lat="43.36698" lon="2.38392">
        <ele>459</ele>
        <time>2019-04-24T09:45:35 02:00</time>
      </trkpt>
      <trkpt lat="43.36684" lon="2.38391">
        <ele>457</ele>
        <time>2019-04-24T09:45:40 02:00</time>
      </trkpt>
      <trkpt lat="43.36654" lon="2.3839">
        <ele>451</ele>
        <time>2019-04-24T09:45:45 02:00</time>
      </trkpt>
      <trkpt lat="43.36631" lon="2.3836">
        <ele>447</ele>
        <time>2019-04-24T09:45:50 02:00</time>
      </trkpt>
      <trkpt lat="43.3661" lon="2.38314">
        <ele>438</ele>
        <time>2019-04-24T09:45:55 02:00</time>
      </trkpt>
      <trkpt lat="43.36605" lon="2.38291">
        <ele>435</ele>
        <time>2019-04-24T09:46:00 02:00</time>
      </trkpt>
      <trkpt lat="43.3659" lon="2.38145">
        <ele>416</ele>
        <time>2019-04-24T09:46:05 02:00</time>
      </trkpt>
      <trkpt lat="43.3659" lon="2.38106">
        <ele>413</ele>
        <time>2019-04-24T09:46:10 02:00</time>
      </trkpt>
      <trkpt lat="43.36581" lon="2.38019">
        <ele>405</ele>
        <time>2019-04-24T09:46:15 02:00</time>
      </trkpt>
      <trkpt lat="43.36562" lon="2.37917">
        <ele>392</ele>
        <time>2019-04-24T09:46:20 02:00</time>
      </trkpt>
      <trkpt lat="43.36557" lon="2.3787">
        <ele>384</ele>
        <time>2019-04-24T09:46:25 02:00</time>
      </trkpt>
      <trkpt lat="43.3657" lon="2.37873">
        <ele>387</ele>
        <time>2019-04-24T09:46:30 02:00</time>
      </trkpt>
      <trkpt lat="43.36609" lon="2.37868">
        <ele>391</ele>
        <time>2019-04-24T09:46:35 02:00</time>
      </trkpt>
      <trkpt lat="43.36627" lon="2.37862">
        <ele>392</ele>
        <time>2019-04-24T09:46:40 02:00</time>
      </trkpt>
      <trkpt lat="43.36671" lon="2.37856">
        <ele>398</ele>
        <time>2019-04-24T09:46:45 02:00</time>
      </trkpt>
      <trkpt lat="43.36697" lon="2.3785">
        <ele>402</ele>
        <time>2019-04-24T09:46:50 02:00</time>
      </trkpt>
      <trkpt lat="43.36712" lon="2.37846">
        <ele>401</ele>
        <time>2019-04-24T09:46:55 02:00</time>
      </trkpt>
      <trkpt lat="43.36727" lon="2.37846">
        <ele>401</ele>
        <time>2019-04-24T09:47:00 02:00</time>
      </trkpt>
      <trkpt lat="43.36748" lon="2.37853">
        <ele>401</ele>
        <time>2019-04-24T09:47:05 02:00</time>
      </trkpt>
      <trkpt lat="43.36771" lon="2.37876">
        <ele>397</ele>
        <time>2019-04-24T09:47:10 02:00</time>
      </trkpt>
      <trkpt lat="43.36779" lon="2.37907">
        <ele>399</ele>
        <time>2019-04-24T09:47:15 02:00</time>
      </trkpt>
      <trkpt lat="43.36782" lon="2.37921">
        <ele>400</ele>
        <time>2019-04-24T09:47:20 02:00</time>
      </trkpt>
      <trkpt lat="43.36787" lon="2.37942">
        <ele>400</ele>
        <time>2019-04-24T09:47:25 02:00</time>
      </trkpt>
      <trkpt lat="43.36809" lon="2.37974">
        <ele>396</ele>
        <time>2019-04-24T09:47:30 02:00</time>
      </trkpt>
      <trkpt lat="43.36831" lon="2.38">
        <ele>396</ele>
        <time>2019-04-24T09:47:35 02:00</time>
      </trkpt>
      <trkpt lat="43.36843" lon="2.38014">
        <ele>399</ele>
        <time>2019-04-24T09:47:40 02:00</time>
      </trkpt>
      <trkpt lat="43.36874" lon="2.38026">
        <ele>396</ele>
        <time>2019-04-24T09:47:45 02:00</time>
      </trkpt>
      <trkpt lat="43.36921" lon="2.38032">
        <ele>392</ele>
        <time>2019-04-24T09:47:50 02:00</time>
      </trkpt>
      <trkpt lat="43.36957" lon="2.38006">
        <ele>377</ele>
        <time>2019-04-24T09:47:55 02:00</time>
      </trkpt>
      <trkpt lat="43.36963" lon="2.37994">
        <ele>372</ele>
        <time>2019-04-24T09:48:00 02:00</time>
      </trkpt>
      <trkpt lat="43.36993" lon="2.37976">
        <ele>371</ele>
        <time>2019-04-24T09:48:05 02:00</time>
      </trkpt>
      <trkpt lat="43.37007" lon="2.37961">
        <ele>368</ele>
        <time>2019-04-24T09:48:10 02:00</time>
      </trkpt>
      <trkpt lat="43.37018" lon="2.3796">
        <ele>370</ele>
        <time>2019-04-24T09:48:15 02:00</time>
      </trkpt>
      <trkpt lat="43.37029" lon="2.37953">
        <ele>369</ele>
        <time>2019-04-24T09:48:20 02:00</time>
      </trkpt>
      <trkpt lat="43.3705" lon="2.37953">
        <ele>369</ele>
        <time>2019-04-24T09:48:25 02:00</time>
      </trkpt>
      <trkpt lat="43.37065" lon="2.37951">
        <ele>369</ele>
        <time>2019-04-24T09:48:30 02:00</time>
      </trkpt>
      <trkpt lat="43.37102" lon="2.37942">
        <ele>372</ele>
        <time>2019-04-24T09:48:35 02:00</time>
      </trkpt>
      <trkpt lat="43.37134" lon="2.3793">
        <ele>373</ele>
        <time>2019-04-24T09:48:40 02:00</time>
      </trkpt>
      <trkpt lat="43.37177" lon="2.37935">
        <ele>373</ele>
        <time>2019-04-24T09:48:45 02:00</time>
      </trkpt>
      <trkpt lat="43.37193" lon="2.37944">
        <ele>375</ele>
        <time>2019-04-24T09:48:50 02:00</time>
      </trkpt>
      <trkpt lat="43.37215" lon="2.37967">
        <ele>375</ele>
        <time>2019-04-24T09:48:55 02:00</time>
      </trkpt>
      <trkpt lat="43.37229" lon="2.37972">
        <ele>371</ele>
        <time>2019-04-24T09:49:00 02:00</time>
      </trkpt>
      <trkpt lat="43.37241" lon="2.37973">
        <ele>365</ele>
        <time>2019-04-24T09:49:05 02:00</time>
      </trkpt>
      <trkpt lat="43.37264" lon="2.3796">
        <ele>350</ele>
        <time>2019-04-24T09:49:10 02:00</time>
      </trkpt>
      <trkpt lat="43.37272" lon="2.37956">
        <ele>347</ele>
        <time>2019-04-24T09:49:15 02:00</time>
      </trkpt>
      <trkpt lat="43.37279" lon="2.37957">
        <ele>346</ele>
        <time>2019-04-24T09:49:20 02:00</time>
      </trkpt>
      <trkpt lat="43.37288" lon="2.37966">
        <ele>349</ele>
        <time>2019-04-24T09:49:25 02:00</time>
      </trkpt>
      <trkpt lat="43.37297" lon="2.3797">
        <ele>349</ele>
        <time>2019-04-24T09:49:30 02:00</time>
      </trkpt>
      <trkpt lat="43.37328" lon="2.37947">
        <ele>342</ele>
        <time>2019-04-24T09:49:35 02:00</time>
      </trkpt>
      <trkpt lat="43.37348" lon="2.37928">
        <ele>339</ele>
        <time>2019-04-24T09:49:40 02:00</time>
      </trkpt>
      <trkpt lat="43.37356" lon="2.37919">
        <ele>336</ele>
        <time>2019-04-24T09:49:45 02:00</time>
      </trkpt>
      <trkpt lat="43.37369" lon="2.37915">
        <ele>334</ele>
        <time>2019-04-24T09:49:50 02:00</time>
      </trkpt>
      <trkpt lat="43.37363" lon="2.37883">
        <ele>324</ele>
        <time>2019-04-24T09:49:55 02:00</time>
      </trkpt>
      <trkpt lat="43.37367" lon="2.37876">
        <ele>324</ele>
        <time>2019-04-24T09:50:00 02:00</time>
      </trkpt>
      <trkpt lat="43.37366" lon="2.37859">
        <ele>323</ele>
        <time>2019-04-24T09:50:05 02:00</time>
      </trkpt>
      <trkpt lat="43.3731" lon="2.37875">
        <ele>320</ele>
        <time>2019-04-24T09:50:10 02:00</time>
      </trkpt>
      <trkpt lat="43.37285" lon="2.37883">
        <ele>320</ele>
        <time>2019-04-24T09:50:15 02:00</time>
      </trkpt>
      <trkpt lat="43.37252" lon="2.37822">
        <ele>321</ele>
        <time>2019-04-24T09:50:20 02:00</time>
      </trkpt>
      <trkpt lat="43.37228" lon="2.37778">
        <ele>322</ele>
        <time>2019-04-24T09:50:25 02:00</time>
      </trkpt>
      <trkpt lat="43.37165" lon="2.37784">
        <ele>315</ele>
        <time>2019-04-24T09:50:30 02:00</time>
      </trkpt>
      <trkpt lat="43.37129" lon="2.37709">
        <ele>316</ele>
        <time>2019-04-24T09:50:35 02:00</time>
      </trkpt>
      <trkpt lat="43.37105" lon="2.37698">
        <ele>312</ele>
        <time>2019-04-24T09:50:40 02:00</time>
      </trkpt>
      <trkpt lat="43.37103" lon="2.37715">
        <ele>311</ele>
        <time>2019-04-24T09:50:45 02:00</time>
      </trkpt>
    </trkseg>
  </trk>
</gpx>